Station Historical Data
Daily Summary for February 18, 2012 Units:  English    Metric   Both
« Previous Day
Next Day »
Daily Weekly Monthly Yearly Custom
  High: Low: Average:
Temperature: 55.8 °F 40.6 °F 48.9 °F
Dew Point: 39.2 °F 33.7 °F 35.9 °F
Humidity: 79% 47% 62%
Wind Speed: 12.0mph 0.0mph 4.2mph
Wind Gust: 15.0mph - -
Wind- - ENE
Pressure: 30.09 in 29.85 in -
Precipitation: 0.00 in    
Historical Graphs
 
 
Tabular Data for February 18, 2012
Time Temperature Dew Point Pressure Wind Wind Speed Wind Gust Humidity Rainfall Rate (Hourly) Conditions
00:00 46.3 °F 35.6 °F 30.08 in NNE 1.0 mph 1.0 mph 66% 0.00 in
00:05 46.1 °F 35.4 °F 30.08 in Calm     66% 0.00 in
00:10 46.1 °F 35.4 °F 30.08 in Calm     66% 0.00 in
00:15 45.5 °F 35.6 °F 30.09 in Calm     68% 0.00 in
00:20 44.8 °F 35.3 °F 30.09 in Calm     69% 0.00 in
00:25 44.5 °F 35.3 °F 30.08 in NNE 1.0 mph 1.0 mph 70% 0.00 in
00:30 44.7 °F 35.5 °F 30.08 in NNE 1.0 mph 1.0 mph 70% 0.00 in
00:35 44.7 °F 35.5 °F 30.08 in NNE 1.0 mph 2.0 mph 70% 0.00 in
00:37 44.6 °F 35.4 °F 30.08 in NNE 1.0 mph 2.0 mph 70% 0.00 in
00:42 44.8 °F 35.3 °F 30.08 in NE 2.0 mph 2.0 mph 69% 0.00 in
00:47 45.1 °F 35.2 °F 30.08 in NNE 2.0 mph 2.0 mph 68% 0.00 in
00:52 45.4 °F 35.1 °F 30.07 in NNE 2.0 mph 3.0 mph 67% 0.00 in
00:57 45.6 °F 35.3 °F 30.07 in North 2.0 mph 2.0 mph 67% 0.00 in
01:02 45.6 °F 35.3 °F 30.07 in NNE 2.0 mph 3.0 mph 67% 0.00 in
01:07 45.7 °F 35.4 °F 30.07 in NNE 1.0 mph 2.0 mph 67% 0.00 in
01:12 45.5 °F 35.2 °F 30.07 in Calm   1.0 mph 67% 0.00 in
01:17 45.1 °F 35.2 °F 30.08 in Calm     68% 0.00 in
01:22 44.9 °F 36.1 °F 30.08 in SSE 2.0 mph 2.0 mph 71% 0.00 in
01:27 44.8 °F 36.0 °F 30.07 in Calm   1.0 mph 71% 0.00 in
01:32 45.0 °F 36.2 °F 30.07 in ESE 1.0 mph 1.0 mph 71% 0.00 in
01:37 45.6 °F 36.4 °F 30.07 in Calm   3.0 mph 70% 0.00 in
01:42 45.8 °F 36.6 °F 30.07 in Calm     70% 0.00 in
01:47 45.2 °F 37.1 °F 30.07 in North 1.0 mph 1.0 mph 73% 0.00 in
01:52 44.3 °F 36.5 °F 30.07 in North 2.0 mph 2.0 mph 74% 0.00 in
01:57 43.4 °F 36.7 °F 30.07 in NNW 2.0 mph 2.0 mph 77% 0.00 in
02:02 42.7 °F 36.0 °F 30.06 in North 1.0 mph 2.0 mph 77% 0.00 in
02:07 42.7 °F 35.7 °F 30.06 in NNE 1.0 mph 2.0 mph 76% 0.00 in
02:13 43.4 °F 35.3 °F 30.07 in NNE 1.0 mph 1.0 mph 73% 0.00 in
02:18 43.9 °F 35.1 °F 30.07 in NNE 3.0 mph 3.0 mph 71% 0.00 in
02:23 43.6 °F 34.8 °F 30.06 in North 2.0 mph 2.0 mph 71% 0.00 in
02:28 42.9 °F 34.8 °F 30.06 in NNE 1.0 mph 2.0 mph 73% 0.00 in
02:33 43.1 °F 35.0 °F 30.06 in NNE 2.0 mph 3.0 mph 73% 0.00 in
02:38 43.0 °F 35.0 °F 30.05 in NNE 2.0 mph 3.0 mph 73% 0.00 in
02:43 42.8 °F 34.8 °F 30.05 in NNE 2.0 mph 3.0 mph 73% 0.00 in
02:48 43.5 °F 35.1 °F 30.05 in NNE 2.0 mph 3.0 mph 72% 0.00 in
02:53 44.2 °F 35.0 °F 30.05 in NE 2.0 mph 3.0 mph 70% 0.00 in
02:58 44.7 °F 34.8 °F 30.05 in NE 1.0 mph 3.0 mph 68% 0.00 in
03:03 44.6 °F 34.7 °F 30.05 in NE 1.0 mph 2.0 mph 68% 0.00 in
03:08 44.5 °F 34.6 °F 30.05 in Calm   1.0 mph 68% 0.00 in
03:13 44.0 °F 34.5 °F 30.05 in NNW 2.0 mph 2.0 mph 69% 0.00 in
03:18 43.1 °F 34.3 °F 30.06 in NNW 1.0 mph 1.0 mph 71% 0.00 in
03:23 43.2 °F 34.5 °F 30.05 in NNE 2.0 mph 2.0 mph 71% 0.00 in
03:28 43.4 °F 34.6 °F 30.05 in NNE 2.0 mph 3.0 mph 71% 0.00 in
03:33 43.4 °F 34.6 °F 30.06 in NNE 2.0 mph 3.0 mph 71% 0.00 in
03:38 43.2 °F 34.5 °F 30.05 in North 2.0 mph 2.0 mph 71% 0.00 in
03:43 42.9 °F 34.2 °F 30.05 in North 1.0 mph 2.0 mph 71% 0.00 in
03:48 43.0 °F 34.6 °F 30.05 in ENE 2.0 mph 2.0 mph 72% 0.00 in
03:53 43.6 °F 34.5 °F 30.05 in NNE 2.0 mph 3.0 mph 70% 0.00 in
03:58 43.7 °F 34.6 °F 30.05 in NNE 3.0 mph 3.0 mph 70% 0.00 in
04:03 43.6 °F 34.5 °F 30.05 in NNE 1.0 mph 1.0 mph 70% 0.00 in
04:08 43.5 °F 34.4 °F 30.05 in Calm   1.0 mph 70% 0.00 in
04:13 43.5 °F 34.4 °F 30.05 in NNE 1.0 mph 1.0 mph 70% 0.00 in
04:18 43.4 °F 34.6 °F 30.05 in NNE 1.0 mph 1.0 mph 71% 0.00 in
04:23 43.4 °F 34.6 °F 30.05 in Calm     71% 0.00 in
04:28 43.5 °F 34.7 °F 30.04 in NNE 1.0 mph 1.0 mph 71% 0.00 in
04:33 43.5 °F 34.7 °F 30.04 in NNE 2.0 mph 2.0 mph 71% 0.00 in
04:38 43.4 °F 34.6 °F 30.05 in NNE 1.0 mph 2.0 mph 71% 0.00 in
04:43 43.2 °F 34.8 °F 30.04 in NNE 1.0 mph 1.0 mph 72% 0.00 in
04:48 43.2 °F 34.8 °F 30.04 in Calm   1.0 mph 72% 0.00 in
04:53 43.3 °F 34.9 °F 30.05 in ESE 1.0 mph 1.0 mph 72% 0.00 in
04:59 43.6 °F 34.8 °F 30.04 in ESE 1.0 mph 1.0 mph 71% 0.00 in
05:04 44.1 °F 35.0 °F 30.04 in East 2.0 mph 2.0 mph 70% 0.00 in
05:09 44.4 °F 34.9 °F 30.03 in East 1.0 mph 1.0 mph 69% 0.00 in
05:14 44.2 °F 34.7 °F 30.03 in ENE 2.0 mph 2.0 mph 69% 0.00 in
05:19 44.0 °F 34.5 °F 30.03 in ENE 2.0 mph 2.0 mph 69% 0.00 in
05:24 44.6 °F 34.7 °F 30.03 in East 1.0 mph 2.0 mph 68% 0.00 in
05:29 44.9 °F 34.6 °F 30.03 in East 1.0 mph 1.0 mph 67% 0.00 in
05:34 44.9 °F 34.6 °F 30.03 in ENE 1.0 mph 1.0 mph 67% 0.00 in
05:39 43.8 °F 34.3 °F 30.03 in NE 2.0 mph 2.0 mph 69% 0.00 in
05:44 42.5 °F 34.1 °F 30.02 in NE 1.0 mph 1.0 mph 72% 0.00 in
05:49 41.8 °F 34.1 °F 30.03 in North 3.0 mph 3.0 mph 74% 0.00 in
05:54 40.8 °F 33.8 °F 30.03 in North 1.0 mph 2.0 mph 76% 0.00 in
05:59 41.3 °F 34.0 °F 30.03 in NNE 2.0 mph 3.0 mph 75% 0.00 in
06:04 41.4 °F 34.1 °F 30.03 in North 2.0 mph 3.0 mph 75% 0.00 in
06:09 40.7 °F 33.7 °F 30.03 in NNE 1.0 mph 2.0 mph 76% 0.00 in
06:14 41.0 °F 34.0 °F 30.04 in North 2.0 mph 3.0 mph 76% 0.00 in
06:19 41.3 °F 34.3 °F 30.04 in NNE 2.0 mph 3.0 mph 76% 0.00 in
06:24 41.6 °F 34.3 °F 30.04 in NNE 2.0 mph 2.0 mph 75% 0.00 in
06:29 42.1 °F 34.4 °F 30.04 in NNE 3.0 mph 3.0 mph 74% 0.00 in
06:34 41.9 °F 34.2 °F 30.04 in NNE 2.0 mph 3.0 mph 74% 0.00 in
06:39 41.5 °F 34.2 °F 30.04 in NNW 3.0 mph 5.0 mph 75% 0.00 in
06:44 40.8 °F 34.2 °F 30.05 in North 3.0 mph 6.0 mph 77% 0.00 in
06:49 40.6 °F 34.3 °F 30.05 in NNE 4.0 mph 4.0 mph 78% 0.00 in
06:54 40.8 °F 34.5 °F 30.05 in North 4.0 mph 6.0 mph 78% 0.00 in
06:59 40.9 °F 34.9 °F 30.04 in North 4.0 mph 6.0 mph 79% 0.00 in
07:04 40.9 °F 34.9 °F 30.04 in NNE 5.0 mph 6.0 mph 79% 0.00 in
07:09 41.1 °F 34.8 °F 30.05 in NNE 6.0 mph 6.0 mph 78% 0.00 in
07:14 41.0 °F 34.7 °F 30.05 in NNW 4.0 mph 5.0 mph 78% 0.00 in
07:19 40.9 °F 34.9 °F 30.05 in North 5.0 mph 8.0 mph 79% 0.00 in
07:24 40.9 °F 34.9 °F 30.06 in NNW 3.0 mph 5.0 mph 79% 0.00 in
07:29 40.9 °F 34.9 °F 30.05 in NNE 5.0 mph 5.0 mph 79% 0.00 in
07:34 40.9 °F 34.6 °F 30.05 in NNE 1.0 mph 5.0 mph 78% 0.00 in
07:39 40.9 °F 34.6 °F 30.06 in NNE 2.0 mph 4.0 mph 78% 0.00 in
07:44 41.0 °F 34.7 °F 30.06 in NNE 1.0 mph 4.0 mph 78% 0.00 in
07:49 41.0 °F 34.7 °F 30.06 in NNE 1.0 mph 3.0 mph 78% 0.00 in
07:54 41.3 °F 35.0 °F 30.05 in NNE 6.0 mph 6.0 mph 78% 0.00 in
07:59 41.8 °F 35.1 °F 30.05 in NE 4.0 mph 5.0 mph 77% 0.00 in
08:04 42.6 °F 35.2 °F 30.05 in NNE 4.0 mph 7.0 mph 75% 0.00 in
08:09 43.1 °F 35.4 °F 30.05 in NE 4.0 mph 6.0 mph 74% 0.00 in
08:14 43.4 °F 35.3 °F 30.05 in NE 4.0 mph 6.0 mph 73% 0.00 in
08:19 43.7 °F 35.6 °F 30.05 in NE 4.0 mph 5.0 mph 73% 0.00 in
08:25 43.9 °F 35.5 °F 30.05 in NE 4.0 mph 6.0 mph 72% 0.00 in
08:30 44.1 °F 35.7 °F 30.05 in NNE 4.0 mph 6.0 mph 72% 0.00 in
08:35 44.3 °F 35.9 °F 30.05 in NE 4.0 mph 7.0 mph 72% 0.00 in
08:40 44.5 °F 35.7 °F 30.06 in NE 4.0 mph 6.0 mph 71% 0.00 in
08:45 44.8 °F 35.6 °F 30.06 in NE 3.0 mph 7.0 mph 70% 0.00 in
08:50 45.0 °F 35.8 °F 30.06 in NE 7.0 mph 7.0 mph 70% 0.00 in
08:55 45.2 °F 36.0 °F 30.06 in NE 4.0 mph 6.0 mph 70% 0.00 in
09:00 45.6 °F 36.4 °F 30.05 in NE 3.0 mph 5.0 mph 70% 0.00 in
09:05 46.0 °F 36.4 °F 30.05 in NNE 4.0 mph 7.0 mph 69% 0.00 in
09:10 46.3 °F 36.3 °F 30.05 in NE 7.0 mph 10.0 mph 68% 0.00 in
09:15 46.5 °F 36.9 °F 30.05 in NNE 5.0 mph 7.0 mph 69% 0.00 in
09:20 46.8 °F 37.2 °F 30.05 in NNE 5.0 mph 7.0 mph 69% 0.00 in
09:25 47.1 °F 36.7 °F 30.05 in NNE 5.0 mph 9.0 mph 67% 0.00 in
09:30 47.5 °F 37.5 °F 30.05 in NE 7.0 mph 9.0 mph 68% 0.00 in
09:35 47.8 °F 37.0 °F 30.05 in NNE 8.0 mph 10.0 mph 66% 0.00 in
09:40 48.1 °F 37.7 °F 30.04 in NNE 5.0 mph 9.0 mph 67% 0.00 in
09:45 48.5 °F 37.3 °F 30.03 in NE 6.0 mph 10.0 mph 65% 0.00 in
09:50 48.7 °F 37.1 °F 30.02 in NNE 7.0 mph 10.0 mph 64% 0.00 in
09:55 48.9 °F 37.3 °F 30.03 in NNE 7.0 mph 8.0 mph 64% 0.00 in
10:00 49.2 °F 37.6 °F 30.02 in NNE 6.0 mph 8.0 mph 64% 0.00 in
10:05 49.5 °F 37.4 °F 30.02 in NNE 7.0 mph 11.0 mph 63% 0.00 in
10:10 49.8 °F 37.3 °F 30.03 in NNE 6.0 mph 10.0 mph 62% 0.00 in
10:15 50.2 °F 37.3 °F 30.04 in ENE 6.0 mph 9.0 mph 61% 0.00 in
10:20 50.5 °F 37.2 °F 30.04 in East 7.0 mph 7.0 mph 60% 0.00 in
10:25 50.8 °F 37.4 °F 30.03 in NE 3.0 mph 7.0 mph 60% 0.00 in
10:30 51.1 °F 36.4 °F 30.03 in NE 8.0 mph 8.0 mph 57% 0.00 in
10:35 51.4 °F 36.2 °F 30.03 in NE 9.0 mph 9.0 mph 56% 0.00 in
10:40 51.8 °F 37.1 °F 30.02 in NE 9.0 mph 11.0 mph 57% 0.00 in
10:45 52.1 °F 36.4 °F 30.02 in NNE 6.0 mph 12.0 mph 55% 0.00 in
10:50 52.3 °F 36.2 °F 30.02 in NNE 9.0 mph 11.0 mph 54% 0.00 in
10:55 52.5 °F 35.9 °F 30.02 in NNE 6.0 mph 12.0 mph 53% 0.00 in
11:00 52.6 °F 36.9 °F 30.03 in NE 7.0 mph 12.0 mph 55% 0.00 in
11:05 52.6 °F 37.8 °F 30.03 in North 6.0 mph 10.0 mph 57% 0.00 in
11:10 52.5 °F 36.3 °F 30.03 in ENE 8.0 mph 11.0 mph 54% 0.00 in
11:15 52.4 °F 36.3 °F 30.03 in NE 4.0 mph 10.0 mph 54% 0.00 in
11:20 52.6 °F 36.5 °F 30.03 in NE 8.0 mph 9.0 mph 54% 0.00 in
11:25 52.8 °F 37.1 °F 30.04 in NNE 4.0 mph 8.0 mph 55% 0.00 in
11:30 53.0 °F 37.3 °F 30.04 in North 8.0 mph 11.0 mph 55% 0.00 in
11:36 53.1 °F 36.4 °F 30.05 in NNE 5.0 mph 9.0 mph 53% 0.00 in
11:41 53.3 °F 37.1 °F 30.05 in NNE 6.0 mph 8.0 mph 54% 0.00 in
11:46 53.6 °F 37.4 °F 30.04 in NNE 6.0 mph 9.0 mph 54% 0.00 in
11:51 53.8 °F 36.6 °F 30.04 in NE 6.0 mph 9.0 mph 52% 0.00 in
11:56 53.9 °F 38.1 °F 30.03 in East 7.0 mph 9.0 mph 55% 0.00 in
12:01 54.5 °F 38.2 °F 30.03 in NNE 6.0 mph 7.0 mph 54% 0.00 in
12:06 54.5 °F 37.2 °F 30.03 in NNW 3.0 mph 9.0 mph 52% 0.00 in
12:11 54.8 °F 38.5 °F 30.03 in NE 5.0 mph 5.0 mph 54% 0.00 in
12:16 55.0 °F 38.2 °F 30.04 in NNE 4.0 mph 6.0 mph 53% 0.00 in
12:21 55.1 °F 37.8 °F 30.04 in North 5.0 mph 5.0 mph 52% 0.00 in
12:26 55.2 °F 37.9 °F 30.04 in NE 3.0 mph 6.0 mph 52% 0.00 in
12:31 55.1 °F 37.8 °F 30.04 in NNW 4.0 mph 6.0 mph 52% 0.00 in
12:36 55.2 °F 37.4 °F 30.04 in NNE 4.0 mph 7.0 mph 51% 0.00 in
12:41 55.3 °F 37.5 °F 30.04 in NNE 5.0 mph 5.0 mph 51% 0.00 in
12:46 55.3 °F 38.0 °F 30.04 in North 6.0 mph 8.0 mph 52% 0.00 in
12:51 55.3 °F 38.0 °F 30.03 in NNE 3.0 mph 6.0 mph 52% 0.00 in
12:56 55.4 °F 38.1 °F 30.04 in ENE 7.0 mph 7.0 mph 52% 0.00 in
13:01 55.3 °F 36.5 °F 30.03 in North 3.0 mph 7.0 mph 49% 0.00 in
13:06 55.4 °F 36.6 °F 30.03 in NE 3.0 mph 6.0 mph 49% 0.00 in
13:11 55.4 °F 36.6 °F 30.03 in NE 4.0 mph 6.0 mph 49% 0.00 in
13:17 55.5 °F 37.2 °F 30.04 in NE 2.0 mph 4.0 mph 50% 0.00 in
13:22 55.7 °F 36.8 °F 30.04 in NE 4.0 mph 5.0 mph 49% 0.00 in
13:27 55.6 °F 36.8 °F 30.03 in East 2.0 mph 5.0 mph 49% 0.00 in
13:32 55.6 °F 37.3 °F 30.03 in ENE 3.0 mph 4.0 mph 50% 0.00 in
13:37 55.7 °F 37.4 °F 30.03 in NE 3.0 mph 5.0 mph 50% 0.00 in
13:42 55.7 °F 36.3 °F 30.02 in NE 3.0 mph 6.0 mph 48% 0.00 in
13:47 55.7 °F 37.9 °F 30.01 in NNE 3.0 mph 5.0 mph 51% 0.00 in
13:52 55.7 °F 37.4 °F 30.01 in NE 4.0 mph 7.0 mph 50% 0.00 in
13:57 55.7 °F 37.9 °F 30.00 in NE 6.0 mph 9.0 mph 51% 0.00 in
14:02 55.7 °F 37.9 °F 30.00 in NE 6.0 mph 9.0 mph 51% 0.00 in
14:07 55.7 °F 37.4 °F 30.00 in NE 3.0 mph 7.0 mph 50% 0.00 in
14:12 55.8 °F 37.5 °F 29.99 in NNE 3.0 mph 7.0 mph 50% 0.00 in
14:17 55.8 °F 38.0 °F 29.99 in NNE 2.0 mph 6.0 mph 51% 0.00 in
14:22 55.7 °F 38.4 °F 29.99 in NNE 4.0 mph 5.0 mph 52% 0.00 in
14:27 55.7 °F 38.4 °F 29.99 in NNE 4.0 mph 4.0 mph 52% 0.00 in
14:32 55.7 °F 37.9 °F 29.99 in NE 3.0 mph 6.0 mph 51% 0.00 in
14:37 55.6 °F 37.8 °F 29.98 in NE 4.0 mph 6.0 mph 51% 0.00 in
14:42 55.6 °F 38.3 °F 29.98 in ENE 5.0 mph 5.0 mph 52% 0.00 in
14:47 55.6 °F 38.8 °F 29.97 in NNE 4.0 mph 7.0 mph 53% 0.00 in
14:52 55.6 °F 39.2 °F 29.97 in NNE 3.0 mph 6.0 mph 54% 0.00 in
14:57 55.5 °F 38.7 °F 29.96 in NE 4.0 mph 7.0 mph 53% 0.00 in
15:02 55.3 °F 38.5 °F 29.95 in NNE 6.0 mph 9.0 mph 53% 0.00 in
15:07 55.2 °F 38.4 °F 29.95 in NNE 6.0 mph 9.0 mph 53% 0.00 in
15:12 55.1 °F 38.8 °F 29.94 in NE 8.0 mph 8.0 mph 54% 0.00 in
15:17 55.2 °F 37.9 °F 29.95 in NE 6.0 mph 9.0 mph 52% 0.00 in
15:22 55.1 °F 38.3 °F 29.94 in NE 3.0 mph 7.0 mph 53% 0.00 in
15:27 55.2 °F 38.9 °F 29.94 in NE 5.0 mph 10.0 mph 54% 0.00 in
15:32 55.2 °F 38.4 °F 29.93 in NNE 5.0 mph 8.0 mph 53% 0.00 in
15:37 55.1 °F 38.3 °F 29.93 in NE 7.0 mph 9.0 mph 53% 0.00 in
15:42 55.1 °F 38.8 °F 29.93 in ENE 4.0 mph 7.0 mph 54% 0.00 in
15:47 55.1 °F 37.8 °F 29.93 in NNE 5.0 mph 8.0 mph 52% 0.00 in
15:52 55.0 °F 38.2 °F 29.93 in NNE 7.0 mph 9.0 mph 53% 0.00 in
15:57 55.0 °F 37.7 °F 29.92 in NE 6.0 mph 8.0 mph 52% 0.00 in
16:02 55.0 °F 38.2 °F 29.92 in NE 4.0 mph 6.0 mph 53% 0.00 in
16:07 55.0 °F 37.7 °F 29.93 in NE 3.0 mph 8.0 mph 52% 0.00 in
16:12 55.1 °F 37.8 °F 29.93 in NE 8.0 mph 9.0 mph 52% 0.00 in
16:18 55.1 °F 38.3 °F 29.93 in NNE 7.0 mph 8.0 mph 53% 0.00 in
16:23 55.0 °F 38.2 °F 29.93 in NNE 5.0 mph 5.0 mph 53% 0.00 in
16:28 54.9 °F 38.1 °F 29.93 in NNE 5.0 mph 6.0 mph 53% 0.00 in
16:33 54.8 °F 37.5 °F 29.93 in NNE 4.0 mph 7.0 mph 52% 0.00 in
16:38 54.7 °F 36.9 °F 29.93 in NNW 6.0 mph 8.0 mph 51% 0.00 in
16:43 54.7 °F 36.4 °F 29.93 in NE 6.0 mph 9.0 mph 50% 0.00 in
16:48 54.7 °F 36.4 °F 29.94 in NNE 5.0 mph 9.0 mph 50% 0.00 in
16:53 54.6 °F 35.8 °F 29.94 in NE 6.0 mph 8.0 mph 49% 0.00 in
16:58 54.5 °F 36.3 °F 29.94 in NE 5.0 mph 8.0 mph 50% 0.00 in
17:03 54.5 °F 35.8 °F 29.94 in NE 6.0 mph 11.0 mph 49% 0.00 in
17:08 54.5 °F 34.7 °F 29.94 in NNE 5.0 mph 11.0 mph 47% 0.00 in
17:13 54.3 °F 35.6 °F 29.95 in NNE 2.0 mph 5.0 mph 49% 0.00 in
17:18 54.2 °F 35.5 °F 29.94 in NE 2.0 mph 7.0 mph 49% 0.00 in
17:23 54.2 °F 35.5 °F 29.94 in NE 3.0 mph 8.0 mph 49% 0.00 in
17:28 54.1 °F 35.4 °F 29.94 in NE 4.0 mph 5.0 mph 49% 0.00 in
17:33 54.0 °F 35.3 °F 29.94 in ENE 2.0 mph 4.0 mph 49% 0.00 in
17:38 53.9 °F 35.7 °F 29.94 in NE 2.0 mph 6.0 mph 50% 0.00 in
17:43 53.8 °F 35.6 °F 29.94 in NE 2.0 mph 7.0 mph 50% 0.00 in
17:48 53.7 °F 36.0 °F 29.94 in NE 6.0 mph 6.0 mph 51% 0.00 in
17:53 53.5 °F 35.8 °F 29.94 in NE 7.0 mph 7.0 mph 51% 0.00 in
17:58 53.4 °F 35.7 °F 29.94 in NE 6.0 mph 7.0 mph 51% 0.00 in
18:03 53.4 °F 35.7 °F 29.93 in ENE 3.0 mph 7.0 mph 51% 0.00 in
18:08 53.2 °F 36.0 °F 29.92 in ESE 6.0 mph 10.0 mph 52% 0.00 in
18:13 53.0 °F 36.3 °F 29.90 in NE 8.0 mph 8.0 mph 53% 0.00 in
18:18 52.8 °F 36.2 °F 29.89 in NE 8.0 mph 9.0 mph 53% 0.00 in
18:23 52.6 °F 36.5 °F 29.88 in NE 9.0 mph 12.0 mph 54% 0.00 in
18:28 52.4 °F 36.3 °F 29.89 in NE 5.0 mph 10.0 mph 54% 0.00 in
18:33 52.2 °F 36.5 °F 29.89 in NNE 6.0 mph 8.0 mph 55% 0.00 in
18:38 52.2 °F 36.1 °F 29.91 in NE 12.0 mph 12.0 mph 54% 0.00 in
18:43 52.3 °F 35.7 °F 29.92 in NE 7.0 mph 11.0 mph 53% 0.00 in
18:48 52.1 °F 36.0 °F 29.92 in NE 6.0 mph 7.0 mph 54% 0.00 in
18:53 52.1 °F 36.0 °F 29.92 in NNW 5.0 mph 8.0 mph 54% 0.00 in
18:58 51.9 °F 35.8 °F 29.93 in NE 6.0 mph 6.0 mph 54% 0.00 in
19:03 51.8 °F 35.7 °F 29.92 in NNE 5.0 mph 8.0 mph 54% 0.00 in
19:08 51.7 °F 35.6 °F 29.92 in NE 4.0 mph 10.0 mph 54% 0.00 in
19:13 51.6 °F 35.5 °F 29.91 in NNE 6.0 mph 10.0 mph 54% 0.00 in
19:18 51.5 °F 35.0 °F 29.91 in NNE 5.0 mph 9.0 mph 53% 0.00 in
19:23 51.4 °F 35.3 °F 29.91 in NNE 10.0 mph 10.0 mph 54% 0.00 in
19:28 51.3 °F 34.8 °F 29.91 in NE 7.0 mph 9.0 mph 53% 0.00 in
19:33 51.3 °F 34.8 °F 29.90 in NE 4.0 mph 9.0 mph 53% 0.00 in
19:38 51.1 °F 34.6 °F 29.89 in NE 6.0 mph 11.0 mph 53% 0.00 in
19:44 51.1 °F 34.6 °F 29.90 in NNE 8.0 mph 9.0 mph 53% 0.00 in
19:49 51.2 °F 35.1 °F 29.91 in NNE 6.0 mph 10.0 mph 54% 0.00 in
19:54 51.0 °F 34.5 °F 29.91 in North 7.0 mph 10.0 mph 53% 0.00 in
19:59 50.9 °F 34.9 °F 29.91 in NNE 8.0 mph 9.0 mph 54% 0.00 in
20:04 50.9 °F 34.9 °F 29.91 in North 6.0 mph 10.0 mph 54% 0.00 in
20:09 50.9 °F 34.4 °F 29.91 in North 3.0 mph 11.0 mph 53% 0.00 in
20:14 50.8 °F 34.8 °F 29.90 in NE 5.0 mph 8.0 mph 54% 0.00 in
20:19 50.7 °F 34.7 °F 29.89 in NE 8.0 mph 12.0 mph 54% 0.00 in
20:24 50.7 °F 34.7 °F 29.90 in NNE 4.0 mph 7.0 mph 54% 0.00 in
20:29 50.7 °F 35.1 °F 29.91 in North 4.0 mph 6.0 mph 55% 0.00 in
20:34 50.6 °F 34.6 °F 29.91 in NNW 5.0 mph 7.0 mph 54% 0.00 in
20:39 50.6 °F 34.6 °F 29.91 in North 5.0 mph 10.0 mph 54% 0.00 in
20:44 50.6 °F 34.6 °F 29.91 in NNE 8.0 mph 11.0 mph 54% 0.00 in
20:49 50.7 °F 34.7 °F 29.91 in NNE 8.0 mph 9.0 mph 54% 0.00 in
20:54 50.6 °F 34.1 °F 29.90 in NE 8.0 mph 10.0 mph 53% 0.00 in
20:59 50.7 °F 34.7 °F 29.91 in NNE 6.0 mph 11.0 mph 54% 0.00 in
21:04 50.7 °F 34.7 °F 29.93 in NNW 5.0 mph 11.0 mph 54% 0.00 in
21:09 50.5 °F 34.5 °F 29.91 in NNE 4.0 mph 7.0 mph 54% 0.00 in
21:14 50.4 °F 34.9 °F 29.90 in NE 7.0 mph 9.0 mph 55% 0.00 in
21:19 50.2 °F 34.7 °F 29.90 in NNW 8.0 mph 10.0 mph 55% 0.00 in
21:24 50.0 °F 34.9 °F 29.91 in NNE 8.0 mph 12.0 mph 56% 0.00 in
21:29 49.9 °F 34.8 °F 29.90 in NNE 7.0 mph 14.0 mph 56% 0.00 in
21:34 49.5 °F 35.3 °F 29.90 in NE 7.0 mph 11.0 mph 58% 0.00 in
21:39 49.3 °F 35.6 °F 29.90 in NE 6.0 mph 10.0 mph 59% 0.00 in
21:44 49.1 °F 35.4 °F 29.91 in NNE 4.0 mph 8.0 mph 59% 0.00 in
21:50 49.0 °F 35.7 °F 29.91 in NE 6.0 mph 11.0 mph 60% 0.00 in
21:55 49.0 °F 35.3 °F 29.91 in NE 6.0 mph 11.0 mph 59% 0.00 in
22:00 49.1 °F 35.4 °F 29.90 in NE 4.0 mph 9.0 mph 59% 0.00 in
22:05 49.1 °F 35.4 °F 29.90 in NE 6.0 mph 9.0 mph 59% 0.00 in
22:10 49.1 °F 35.4 °F 29.89 in NE 6.0 mph 11.0 mph 59% 0.00 in
22:15 48.8 °F 35.1 °F 29.89 in NNE 11.0 mph 13.0 mph 59% 0.00 in
22:20 48.5 °F 35.7 °F 29.88 in NE 12.0 mph 12.0 mph 61% 0.00 in
22:25 48.3 °F 35.5 °F 29.88 in ESE 4.0 mph 15.0 mph 61% 0.00 in
22:30 48.1 °F 36.1 °F 29.88 in NE 5.0 mph 11.0 mph 63% 0.00 in
22:36 48.0 °F 35.6 °F 29.88 in NNE 10.0 mph 12.0 mph 62% 0.00 in
22:41 47.9 °F 35.9 °F 29.88 in NE 5.0 mph 8.0 mph 63% 0.00 in
22:46 48.0 °F 35.6 °F 29.88 in NE 5.0 mph 9.0 mph 62% 0.00 in
22:51 47.9 °F 35.9 °F 29.88 in NNE 6.0 mph 9.0 mph 63% 0.00 in
22:56 48.0 °F 35.6 °F 29.88 in NNE 5.0 mph 11.0 mph 62% 0.00 in
23:01 48.0 °F 36.0 °F 29.88 in NNE 4.0 mph 13.0 mph 63% 0.00 in
23:06 48.0 °F 35.6 °F 29.88 in NE 5.0 mph 8.0 mph 62% 0.00 in
23:11 48.1 °F 35.7 °F 29.88 in ENE 4.0 mph 11.0 mph 62% 0.00 in
23:16 48.0 °F 36.0 °F 29.87 in NE 5.0 mph 8.0 mph 63% 0.00 in
23:21 48.0 °F 35.6 °F 29.87 in NE 5.0 mph 8.0 mph 62% 0.00 in
23:26 48.0 °F 35.6 °F 29.87 in ENE 5.0 mph 9.0 mph 62% 0.00 in
23:31 48.0 °F 36.0 °F 29.87 in NE 5.0 mph 8.0 mph 63% 0.00 in
23:36 48.0 °F 36.0 °F 29.86 in NNE 4.0 mph 9.0 mph 63% 0.00 in
23:41 48.0 °F 36.0 °F 29.86 in NE 5.0 mph 8.0 mph 63% 0.00 in
23:46 48.0 °F 36.0 °F 29.86 in NE 10.0 mph 10.0 mph 63% 0.00 in
23:52 47.9 °F 35.9 °F 29.86 in NE 6.0 mph 9.0 mph 63% 0.00 in
23:57 47.8 °F 36.2 °F 29.85 in NNE 3.0 mph 7.0 mph 64% 0.00 in
Compliments of Weather Underground